Time;durP1;ratioP1;P1;durP2;ratioP2;P2;SDS_P1;SDS_P2;PMS_P1;PMS_P2;Temp;Humidity;BMP_temperature;BMP_pressure;BME280_temperature;BME280_humidity;BME280_pressure;Samples;Min_cycle;Max_cycle;Signal;HPM_P1;HPM_P2
2024/01/22 00:01:56;;;;;;;16.63;6.15;;;;;;;6.74;100.00;100754.31;4840003;29;20380;-67
2024/01/22 00:04:21;;;;;;;16.60;5.10;;;;;;;6.74;100.00;100748.97;4837507;29;20025;-67
2024/01/22 00:06:46;;;;;;;15.73;5.05;;;;;;;6.77;100.00;100730.94;4836440;29;20447;-67
2024/01/22 00:09:11;;;;;;;17.30;5.70;;;;;;;6.78;100.00;100710.44;4838354;29;20248;-64
2024/01/22 00:11:37;;;;;;;17.77;5.30;;;;;;;6.80;100.00;100713.88;4841604;29;20045;-64
2024/01/22 00:14:05;;;;;;;15.18;5.13;;;;;;;6.82;100.00;100706.63;4838277;29;20030;-64
2024/01/22 00:16:31;;;;;;;18.13;5.85;;;;;;;6.82;100.00;100709.28;4841924;29;20458;-64
2024/01/22 00:18:56;;;;;;;16.77;5.38;;;;;;;6.82;100.00;100704.81;4837748;29;20038;-64
2024/01/22 00:21:22;;;;;;;15.10;4.97;;;;;;;6.83;100.00;100727.91;4829406;29;20057;-64
2024/01/22 00:23:47;;;;;;;17.33;4.68;;;;;;;6.85;100.00;100717.13;4841318;29;20133;-64
2024/01/22 00:26:14;;;;;;;17.08;5.20;;;;;;;6.87;100.00;100704.53;4839802;29;20041;-64
2024/01/22 00:28:41;;;;;;;15.32;5.40;;;;;;;6.89;100.00;100699.09;4839817;29;20106;-64
2024/01/22 00:31:06;;;;;;;16.92;4.55;;;;;;;6.92;100.00;100705.13;4836352;29;20026;-65
2024/01/22 00:33:31;;;;;;;14.55;4.75;;;;;;;6.95;100.00;100685.38;4836939;29;20040;-64
2024/01/22 00:35:57;;;;;;;17.30;5.13;;;;;;;6.97;100.00;100672.81;4825798;29;20086;-64
2024/01/22 00:38:22;;;;;;;16.00;4.97;;;;;;;6.98;100.00;100656.66;4837440;29;20042;-64
2024/01/22 00:40:47;;;;;;;15.55;5.00;;;;;;;7.00;100.00;100654.75;4839909;29;20092;-63
2024/01/22 00:43:12;;;;;;;14.25;5.00;;;;;;;7.04;100.00;100654.56;4839086;29;20037;-64
2024/01/22 00:45:38;;;;;;;15.00;4.70;;;;;;;7.08;100.00;100637.38;4838154;29;20517;-64
2024/01/22 00:48:04;;;;;;;14.52;4.82;;;;;;;7.11;100.00;100650.56;4832649;29;20126;-64
2024/01/22 00:50:30;;;;;;;14.82;4.68;;;;;;;7.14;100.00;100639.66;4816999;29;20026;-64
2024/01/22 00:52:55;;;;;;;12.57;4.50;;;;;;;7.16;100.00;100632.44;4830842;29;20041;-64
2024/01/22 00:55:20;;;;;;;17.25;4.78;;;;;;;7.18;100.00;100642.06;4827309;29;20038;-64
2024/01/22 00:57:45;;;;;;;15.73;4.88;;;;;;;7.19;100.00;100629.56;4836832;29;20032;-64
2024/01/22 01:00:11;;;;;;;13.55;4.63;;;;;;;7.23;100.00;100652.44;4823149;29;20034;-64
2024/01/22 01:02:36;;;;;;;13.90;4.28;;;;;;;7.25;100.00;100629.19;4827567;29;20450;-64
2024/01/22 01:05:02;;;;;;;14.68;4.57;;;;;;;7.28;100.00;100633.47;4837384;29;20086;-64
2024/01/22 01:07:27;;;;;;;11.70;3.80;;;;;;;7.34;100.00;100635.75;4837234;29;20064;-64
2024/01/22 01:09:52;;;;;;;14.60;3.90;;;;;;;7.38;100.00;100625.72;4819387;29;20026;-65
2024/01/22 01:12:18;;;;;;;14.15;3.97;;;;;;;7.40;100.00;100629.16;4836705;29;20448;-64
2024/01/22 01:14:43;;;;;;;14.50;4.05;;;;;;;7.39;100.00;100633.63;4827686;29;20033;-64
2024/01/22 01:17:08;;;;;;;13.43;3.75;;;;;;;7.40;100.00;100629.16;4837269;29;20466;-64
2024/01/22 01:19:33;;;;;;;15.40;4.57;;;;;;;7.42;100.00;100608.53;4819725;29;20030;-67
2024/01/22 01:21:59;;;;;;;11.98;3.78;;;;;;;7.45;100.00;100622.56;4821250;29;20351;-67
2024/01/22 01:24:24;;;;;;;13.88;3.92;;;;;;;7.49;100.00;100617.88;4838671;29;20174;-66
2024/01/22 01:26:49;;;;;;;15.13;3.75;;;;;;;7.51;100.00;100616.81;4839114;29;20104;-67
2024/01/22 01:29:15;;;;;;;9.23;3.33;;;;;;;7.51;100.00;100600.78;4839761;29;20082;-68
2024/01/22 01:31:40;;;;;;;11.20;4.15;;;;;;;7.54;100.00;100599.72;4840835;29;20033;-67
2024/01/22 01:34:05;;;;;;;11.18;3.33;;;;;;;7.55;100.00;100585.38;4840390;29;20037;-67
2024/01/22 01:36:31;;;;;;;14.23;4.00;;;;;;;7.58;100.00;100584.34;4839352;29;20502;-67
2024/01/22 01:38:56;;;;;;;11.30;3.53;;;;;;;7.61;100.00;100571.59;4836193;29;20038;-67
2024/01/22 01:41:22;;;;;;;13.00;3.72;;;;;;;7.64;100.00;100587.47;4829480;29;20106;-66
2024/01/22 01:43:47;;;;;;;9.93;3.30;;;;;;;7.67;100.00;100573.03;4839458;29;20486;-68
2024/01/22 01:46:12;;;;;;;11.65;3.30;;;;;;;7.70;100.00;100581.72;4839955;29;20061;-67
2024/01/22 01:48:39;;;;;;;13.57;3.50;;;;;;;7.73;100.00;100569.09;4833473;29;20054;-68
2024/01/22 01:51:05;;;;;;;15.05;3.42;;;;;;;7.75;100.00;100564.50;4832184;29;20037;-67
2024/01/22 01:53:32;;;;;;;9.68;3.03;;;;;;;7.76;100.00;100552.84;4834497;29;20089;-68
2024/01/22 01:55:59;;;;;;;13.95;3.90;;;;;;;7.77;100.00;100554.56;4840393;29;20080;-67
2024/01/22 01:58:24;;;;;;;11.63;3.38;;;;;;;7.78;100.00;100549.09;4837850;29;20038;-67
2024/01/22 02:00:53;;;;;;;15.75;4.60;;;;;;;7.79;100.00;100556.19;4835775;29;20098;-68
2024/01/22 02:03:18;;;;;;;12.05;3.40;;;;;;;7.79;100.00;100536.56;4820366;29;20026;-67
2024/01/22 02:05:44;;;;;;;10.25;3.25;;;;;;;7.83;100.00;100556.81;4824677;29;20037;-67
2024/01/22 02:08:10;;;;;;;10.23;2.92;;;;;;;7.83;100.00;100551.47;4836901;29;20026;-67
2024/01/22 02:10:35;;;;;;;11.77;4.00;;;;;;;7.83;100.00;100530.06;4822025;29;20040;-67
2024/01/22 02:13:06;;;;;;;11.20;3.58;;;;;;;7.85;100.00;100549.56;4830918;29;20048;-67
2024/01/22 02:15:33;;;;;;;12.07;3.55;;;;;;;7.88;100.00;100522.59;4829350;29;20026;-67
2024/01/22 02:18:04;;;;;;;9.15;3.65;;;;;;;7.88;100.00;100511.91;4835391;29;20042;-67
2024/01/22 02:20:29;;;;;;;12.57;3.60;;;;;;;7.88;100.00;100525.28;4835034;29;20031;-67
2024/01/22 02:22:59;;;;;;;9.30;3.40;;;;;;;7.89;100.00;100518.94;4838830;29;20042;-67
2024/01/22 02:25:25;;;;;;;9.75;3.50;;;;;;;7.88;100.00;100491.34;4827661;29;20038;-68
2024/01/22 02:27:53;;;;;;;11.70;3.33;;;;;;;7.89;100.00;100492.19;4838117;29;20033;-68
2024/01/22 02:30:18;;;;;;;10.52;3.45;;;;;;;7.91;100.00;100495.63;4841369;29;20386;-64
2024/01/22 02:32:43;;;;;;;11.32;3.58;;;;;;;7.92;100.00;100504.50;4823659;29;20377;-65
2024/01/22 02:35:08;;;;;;;11.85;3.58;;;;;;;7.94;100.00;100483.88;4817692;29;20038;-64
2024/01/22 02:37:34;;;;;;;9.40;2.90;;;;;;;7.95;100.00;100483.75;4831942;29;20183;-64
2024/01/22 02:39:59;;;;;;;9.50;2.92;;;;;;;7.95;100.00;100465.03;4824264;29;20033;-64
2024/01/22 02:42:24;;;;;;;10.70;2.90;;;;;;;7.96;100.00;100447.16;4833932;29;20048;-64
2024/01/22 02:44:50;;;;;;;13.43;3.53;;;;;;;7.96;100.00;100433.75;4834359;29;20462;-64
2024/01/22 02:47:15;;;;;;;14.55;3.53;;;;;;;7.96;100.00;100428.41;4831649;29;20126;-64
2024/01/22 02:49:40;;;;;;;10.30;3.15;;;;;;;7.98;100.00;100429.16;4834284;29;20531;-64
2024/01/22 02:52:05;;;;;;;10.18;3.78;;;;;;;7.97;100.00;100424.78;4833433;29;20376;-65
2024/01/22 02:54:31;;;;;;;12.65;3.30;;;;;;;7.97;100.00;100416.75;4825821;29;20026;-64
2024/01/22 02:56:56;;;;;;;13.68;3.30;;;;;;;7.98;100.00;100427.34;4826124;29;20404;-65
2024/01/22 02:59:21;;;;;;;8.82;2.92;;;;;;;8.01;100.00;100404.88;4836682;29;20552;-65
2024/01/22 03:01:47;;;;;;;8.25;2.75;;;;;;;8.01;100.00;100395.03;4826040;29;20034;-65
2024/01/22 03:04:12;;;;;;;11.57;3.20;;;;;;;8.00;100.00;100393.31;4833236;29;20476;-64
2024/01/22 03:06:38;;;;;;;14.52;3.35;;;;;;;7.99;100.00;100388.06;4839463;29;20057;-65
2024/01/22 03:09:04;;;;;;;9.18;2.60;;;;;;;7.98;100.00;100378.31;4818112;29;20041;-65
2024/01/22 03:11:30;;;;;;;10.95;3.08;;;;;;;7.97;100.00;100382.81;4834310;29;20038;-64
2024/01/22 03:13:55;;;;;;;12.13;3.38;;;;;;;7.96;100.00;100367.72;4836076;29;20036;-65
2024/01/22 03:16:20;;;;;;;8.20;2.85;;;;;;;7.97;100.00;100361.41;4838297;29;20034;-65
2024/01/22 03:18:45;;;;;;;9.98;2.83;;;;;;;7.96;100.00;100367.72;4836557;29;20402;-64
2024/01/22 03:21:11;;;;;;;5.65;2.72;;;;;;;7.97;100.00;100353.38;4831903;29;20037;-65
2024/01/22 03:23:36;;;;;;;10.65;3.17;;;;;;;7.98;100.00;100362.25;4823965;29;20036;-65
2024/01/22 03:26:02;;;;;;;8.82;2.70;;;;;;;7.99;100.00;100361.28;4828284;29;20177;-64
2024/01/22 03:28:27;;;;;;;6.38;2.67;;;;;;;8.00;100.00;100355.84;4840280;29;20046;-65
2024/01/22 03:30:52;;;;;;;8.20;2.83;;;;;;;8.01;100.00;100357.56;4837993;29;20040;-65
2024/01/22 03:33:18;;;;;;;9.38;3.00;;;;;;;8.03;100.00;100347.59;4841497;29;20114;-64
2024/01/22 03:35:44;;;;;;;7.72;2.42;;;;;;;8.04;100.00;100357.34;4838349;29;20495;-65
2024/01/22 03:38:09;;;;;;;8.25;2.80;;;;;;;8.05;100.00;100343.00;4823679;29;20026;-66
2024/01/22 03:40:34;;;;;;;8.60;2.50;;;;;;;8.09;100.00;100332.06;4837655;29;20117;-67
2024/01/22 03:43:00;;;;;;;8.38;2.60;;;;;;;8.12;100.00;100345.22;4834301;29;20065;-66
2024/01/22 03:45:25;;;;;;;7.60;2.67;;;;;;;8.14;100.00;100345.97;4833583;29;20455;-66
2024/01/22 03:47:50;;;;;;;7.90;2.78;;;;;;;8.17;100.00;100324.31;4834837;29;20522;-66
2024/01/22 03:50:15;;;;;;;11.27;3.03;;;;;;;8.19;100.00;100322.41;4818006;29;20038;-66
2024/01/22 03:52:41;;;;;;;5.07;2.35;;;;;;;8.22;100.00;100336.44;4836875;29;20410;-66
2024/01/22 03:55:07;;;;;;;6.10;2.63;;;;;;;8.27;100.00;100319.19;4836975;29;20097;-66
2024/01/22 03:57:32;;;;;;;6.65;2.40;;;;;;;8.32;100.00;100319.72;4828473;29;20124;-66
2024/01/22 03:59:58;;;;;;;5.78;2.40;;;;;;;8.35;100.00;100323.00;4838284;29;20166;-66
2024/01/22 04:02:23;;;;;;;6.63;2.42;;;;;;;8.40;100.00;100307.47;4835954;29;20061;-66
2024/01/22 04:04:50;;;;;;;9.65;2.90;;;;;;;8.42;100.00;100322.56;4833852;29;20056;-67
2024/01/22 04:07:15;;;;;;;5.03;2.00;;;;;;;8.42;100.00;100310.06;4836294;29;20037;-66
2024/01/22 04:09:41;;;;;;;8.10;2.47;;;;;;;8.43;100.00;100300.19;4834584;29;20233;-66
2024/01/22 04:12:06;;;;;;;6.57;2.35;;;;;;;8.43;100.00;100318.94;4836312;29;20502;-67
2024/01/22 04:14:31;;;;;;;5.63;2.03;;;;;;;8.45;100.00;100325.03;4837222;29;20059;-67
2024/01/22 04:16:56;;;;;;;11.18;2.85;;;;;;;8.45;100.00;100317.00;4833860;29;20109;-66
2024/01/22 04:19:22;;;;;;;6.70;2.38;;;;;;;8.46;100.00;100314.22;4835736;29;20026;-67
2024/01/22 04:21:47;;;;;;;4.88;2.20;;;;;;;8.49;100.00;100313.16;4837634;29;20033;-68
2024/01/22 04:24:13;;;;;;;12.85;2.72;;;;;;;8.52;100.00;100307.56;4842443;29;20436;-66
2024/01/22 04:26:39;;;;;;;4.82;2.42;;;;;;;8.52;100.00;100313.78;4825625;29;20485;-67
2024/01/22 04:29:04;;;;;;;6.75;2.40;;;;;;;8.55;100.00;100300.19;4834918;29;20037;-66
2024/01/22 04:31:30;;;;;;;7.30;2.35;;;;;;;8.57;100.00;100306.25;4838924;29;20030;-66
2024/01/22 04:33:55;;;;;;;5.50;2.17;;;;;;;8.62;100.00;100323.81;4837911;29;20067;-66
2024/01/22 04:36:21;;;;;;;9.25;2.60;;;;;;;8.64;100.00;100306.69;4835248;29;20363;-66
2024/01/22 04:38:46;;;;;;;7.20;2.63;;;;;;;8.65;100.00;100291.44;4834518;29;20098;-66
2024/01/22 04:41:11;;;;;;;9.45;2.72;;;;;;;8.68;100.00;100305.47;4836415;29;20033;-67
2024/01/22 04:43:36;;;;;;;9.52;2.40;;;;;;;8.71;100.00;100307.94;4834978;29;20041;-67
2024/01/22 04:46:02;;;;;;;3.88;1.75;;;;;;;8.77;100.00;100289.69;4833357;29;20050;-68
2024/01/22 04:48:28;;;;;;;8.73;2.40;;;;;;;8.78;100.00;100291.41;4830934;29;20052;-67
2024/01/22 04:50:53;;;;;;;6.53;2.08;;;;;;;8.80;100.00;100310.88;4833876;29;20664;-67
2024/01/22 04:53:18;;;;;;;5.03;2.10;;;;;;;8.83;100.00;100283.84;4826289;29;20114;-67
2024/01/22 04:55:43;;;;;;;5.05;2.05;;;;;;;8.85;100.00;100306.03;4823037;29;20125;-67
2024/01/22 04:58:09;;;;;;;7.95;2.20;;;;;;;8.90;100.00;100271.69;4835862;29;20033;-65
2024/01/22 05:00:34;;;;;;;7.97;2.08;;;;;;;8.93;100.00;100276.81;4821268;29;20395;-65
2024/01/22 05:03:04;;;;;;;6.60;2.25;;;;;;;8.97;100.00;100272.94;4819316;29;20045;-65
2024/01/22 05:05:29;;;;;;;;;;;;;;;8.98;100.00;100285.38;4835532;29;20036;-64
2024/01/22 05:07:54;;;;;;;5.05;2.20;;;;;;;9.03;100.00;100296.59;4828510;29;20370;-68
2024/01/22 05:10:20;;;;;;;7.35;2.85;;;;;;;9.04;100.00;100298.31;4832022;29;20083;-68
2024/01/22 05:12:45;;;;;;;7.30;2.10;;;;;;;9.08;100.00;100298.97;4831346;29;20037;-68
2024/01/22 05:15:13;;;;;;;5.25;2.35;;;;;;;9.10;100.00;100294.31;4830950;29;20073;-68
2024/01/22 05:17:39;;;;;;;6.55;2.20;;;;;;;9.09;100.00;100285.44;4834603;29;20405;-67
2024/01/22 05:20:06;;;;;;;4.40;1.70;;;;;;;9.12;100.00;100288.84;4822261;29;20038;-67
2024/01/22 05:22:32;;;;;;;9.50;2.53;;;;;;;9.13;100.00;100298.59;4837657;29;20061;-68
2024/01/22 05:24:58;;;;;;;6.55;2.38;;;;;;;9.16;100.00;100288.47;4826867;29;20511;-67
2024/01/22 05:27:24;;;;;;;5.85;2.13;;;;;;;9.18;100.00;100293.72;4836245;29;20079;-68
2024/01/22 05:29:49;;;;;;;8.43;2.72;;;;;;;9.18;100.00;100294.59;4838246;29;20037;-68
2024/01/22 05:32:15;;;;;;;8.95;2.60;;;;;;;9.21;100.00;100294.38;4837145;29;20038;-68
2024/01/22 05:34:40;;;;;;;6.00;2.15;;;;;;;9.23;100.00;100291.56;4836179;29;20053;-68
2024/01/22 05:37:05;;;;;;;5.88;2.00;;;;;;;9.24;100.00;100304.00;4822756;29;20037;-68
2024/01/22 05:39:31;;;;;;;11.32;2.60;;;;;;;9.24;100.00;100293.28;4833746;29;20160;-67
2024/01/22 05:41:56;;;;;;;8.00;2.42;;;;;;;9.24;100.00;100291.44;4835551;29;20082;-68
2024/01/22 05:44:22;;;;;;;6.85;2.03;;;;;;;9.26;100.00;100310.09;4830928;29;20045;-67
2024/01/22 05:46:47;;;;;;;10.13;2.60;;;;;;;9.25;100.00;100303.00;4830708;29;20034;-67
2024/01/22 05:49:12;;;;;;;6.38;2.03;;;;;;;9.25;100.00;100301.22;4828686;29;20028;-67
2024/01/22 05:51:38;;;;;;;6.30;2.05;;;;;;;9.24;100.00;100301.31;4834683;29;20048;-68
2024/01/22 05:54:03;;;;;;;13.40;2.40;;;;;;;9.23;100.00;100297.78;4839960;29;20038;-67
2024/01/22 05:56:29;;;;;;;9.20;2.25;;;;;;;9.21;100.00;100302.41;4838190;29;20025;-68
2024/01/22 05:58:55;;;;;;;7.38;2.03;;;;;;;9.20;100.00;100323.97;4846223;29;20045;-68
2024/01/22 06:01:22;;;;;;;5.72;2.05;;;;;;;9.17;100.00;100308.13;4825221;29;20040;-68
2024/01/22 06:03:47;;;;;;;8.40;2.22;;;;;;;9.14;100.00;100303.00;4845051;29;20057;-67
2024/01/22 06:06:14;;;;;;;6.35;1.98;;;;;;;9.13;100.00;100320.91;4822126;29;20030;-68
2024/01/22 06:08:44;;;;;;;9.75;2.78;;;;;;;9.14;100.00;100325.28;4831121;29;20112;-68
2024/01/22 06:11:11;;;;;;;9.25;2.60;;;;;;;9.13;100.00;100325.41;4843162;29;20058;-68
2024/01/22 06:13:39;;;;;;;5.38;2.30;;;;;;;9.13;100.00;100333.44;4842394;29;20482;-68
2024/01/22 06:16:11;;;;;;;2.70;1.80;;;;;;;9.12;100.00;100326.38;4839486;29;20029;-67
2024/01/22 06:18:38;;;;;;;10.05;2.63;;;;;;;9.12;100.00;100310.28;4838688;29;20041;-68
2024/01/22 06:21:04;;;;;;;9.48;2.58;;;;;;;9.08;100.00;100298.97;4829820;29;20365;-68
2024/01/22 06:23:31;;;;;;;5.15;2.10;;;;;;;9.08;100.00;100294.44;4837745;29;20029;-68
2024/01/22 06:25:56;;;;;;;7.30;2.17;;;;;;;9.07;100.00;100303.44;4846641;29;20041;-67
2024/01/22 06:28:26;;;;;;;8.15;2.42;;;;;;;9.05;100.00;100310.75;4842284;29;20394;-68
2024/01/22 06:30:53;;;;;;;7.13;2.60;;;;;;;9.04;100.00;100306.34;4828905;29;20068;-67
2024/01/22 06:33:20;;;;;;;7.85;2.40;;;;;;;9.05;100.00;100310.75;4842519;29;20527;-67
2024/01/22 06:35:45;;;;;;;7.13;2.35;;;;;;;9.04;100.00;100316.25;4830987;29;20060;-70
2024/01/22 06:38:11;;;;;;;9.45;2.28;;;;;;;9.03;100.00;100299.28;4845244;29;20026;-70
2024/01/22 06:40:37;;;;;;;8.18;2.88;;;;;;;9.04;100.00;100302.84;4830613;29;21450;-69
2024/01/22 06:43:02;;;;;;;5.03;1.95;;;;;;;9.01;100.00;100301.22;4829191;29;20026;-70
2024/01/22 06:45:28;;;;;;;6.50;1.98;;;;;;;9.00;100.00;100320.97;4832300;29;20022;-70
2024/01/22 06:47:53;;;;;;;3.20;1.73;;;;;;;8.98;100.00;100325.59;4843197;29;20054;-70
2024/01/22 06:50:18;;;;;;;3.33;1.80;;;;;;;9.00;100.00;100334.34;4840596;29;20253;-70
2024/01/22 06:52:47;;;;;;;6.60;2.03;;;;;;;9.01;100.00;100329.88;4829921;29;20027;-70
2024/01/22 06:55:12;;;;;;;7.18;2.40;;;;;;;9.03;100.00;100342.16;4840796;29;20098;-70
2024/01/22 06:57:38;;;;;;;2.95;1.80;;;;;;;9.02;100.00;100348.53;4841328;29;20482;-70
2024/01/22 07:00:07;;;;;;;4.70;1.80;;;;;;;9.02;100.00;100351.19;4835655;29;20023;-70
2024/01/22 07:02:37;;;;;;;3.22;2.10;;;;;;;9.04;100.00;100356.44;4841757;29;20029;-69
2024/01/22 07:05:04;;;;;;;4.90;1.80;;;;;;;9.04;100.00;100340.38;4827501;29;20113;-70
2024/01/22 07:07:30;;;;;;;4.53;1.90;;;;;;;9.01;100.00;100333.41;4840716;29;20410;-70
2024/01/22 07:09:56;;;;;;;6.43;2.10;;;;;;;9.02;100.00;100348.53;4830169;29;20061;-69
2024/01/22 07:12:22;;;;;;;6.80;2.17;;;;;;;9.02;100.00;100344.97;4840681;29;20038;-70
2024/01/22 07:14:48;;;;;;;7.75;2.33;;;;;;;9.03;100.00;100323.41;4837576;29;20037;-70
2024/01/22 07:17:15;;;;;;;9.15;2.30;;;;;;;9.05;100.00;100336.72;4839604;29;20498;-70
2024/01/22 07:19:41;;;;;;;9.82;2.50;;;;;;;9.07;100.00;100345.50;4825393;29;20080;-68
2024/01/22 07:22:06;;;;;;;3.95;2.42;;;;;;;9.07;100.00;100335.59;4840648;29;20497;-68
2024/01/22 07:24:31;;;;;;;6.93;2.50;;;;;;;9.10;100.00;100335.38;4839100;29;20379;-68
2024/01/22 07:26:57;;;;;;;6.22;2.20;;;;;;;9.10;100.00;100332.69;4839439;29;20121;-68
2024/01/22 07:29:22;;;;;;;7.55;2.75;;;;;;;9.14;100.00;100336.00;4843533;29;20025;-67
2024/01/22 07:31:47;;;;;;;8.95;2.45;;;;;;;9.14;100.00;100349.41;4843343;29;20056;-65
2024/01/22 07:34:12;;;;;;;7.85;2.88;;;;;;;9.15;100.00;100343.09;4840919;29;20558;-65
2024/01/22 07:36:38;;;;;;;14.48;2.72;;;;;;;9.17;100.00;100337.63;4840440;29;20042;-65
2024/01/22 07:39:03;;;;;;;10.75;2.70;;;;;;;9.17;100.00;100332.25;4829926;29;20085;-65
2024/01/22 07:41:28;;;;;;;10.45;2.67;;;;;;;9.19;100.00;100352.59;4842877;29;20158;-65
2024/01/22 07:43:54;;;;;;;5.57;2.40;;;;;;;9.19;100.00;100346.38;4840552;29;20374;-65
2024/01/22 07:46:19;;;;;;;7.68;2.17;;;;;;;9.21;100.00;100348.00;4840042;29;20129;-65
2024/01/22 07:48:44;;;;;;;7.95;2.38;;;;;;;9.24;100.00;100352.28;4832627;29;20129;-68
2024/01/22 07:51:10;;;;;;;11.48;2.78;;;;;;;9.25;100.00;100353.97;4830463;29;20538;-66
2024/01/22 07:53:35;;;;;;;10.70;2.53;;;;;;;9.25;100.00;100359.31;4813064;29;20090;-67
2024/01/22 07:56:01;;;;;;;13.75;3.13;;;;;;;9.25;100.00;100345.91;4826270;29;20034;-65
2024/01/22 07:58:27;;;;;;;12.15;2.90;;;;;;;9.26;100.00;100355.69;4806203;29;20468;-65
2024/01/22 08:00:52;;;;;;;12.50;3.05;;;;;;;9.25;100.00;100348.59;4815031;29;20034;-65
2024/01/22 08:03:17;;;;;;;12.30;2.95;;;;;;;9.25;100.00;100340.56;4831457;29;20042;-65
2024/01/22 08:05:42;;;;;;;16.45;3.40;;;;;;;9.23;100.00;100343.34;4823245;29;20166;-65
2024/01/22 08:08:11;;;;;;;12.70;3.10;;;;;;;9.23;100.00;100350.56;4819601;29;20526;-65
2024/01/22 08:10:37;;;;;;;19.48;4.18;;;;;;;9.24;100.00;100352.28;4808291;29;20054;-65
2024/01/22 08:13:03;;;;;;;22.10;4.47;;;;;;;9.24;100.00;100349.59;4825836;29;20113;-65
2024/01/22 08:15:28;;;;;;;21.90;4.70;;;;;;;9.28;100.00;100372.50;4827997;29;20036;-66
2024/01/22 08:17:53;;;;;;;22.60;5.10;;;;;;;9.26;100.00;100347.63;4822075;29;20581;-66
2024/01/22 08:20:18;;;;;;;19.95;4.03;;;;;;;9.27;100.00;100342.16;4820046;29;20092;-65
2024/01/22 08:22:44;;;;;;;24.05;5.30;;;;;;;9.28;100.00;100361.78;4821022;29;20054;-66
2024/01/22 08:25:09;;;;;;;21.08;3.83;;;;;;;9.27;100.00;100376.16;4821824;29;20521;-66
2024/01/22 08:27:35;;;;;;;26.20;5.15;;;;;;;9.26;100.00;100385.19;4808089;29;20029;-66
2024/01/22 08:30:00;;;;;;;23.67;4.88;;;;;;;9.24;100.00;100363.00;4821950;29;20049;-65
2024/01/22 08:32:25;;;;;;;21.88;4.60;;;;;;;9.22;100.00;100368.47;4821453;29;20030;-66
2024/01/22 08:34:50;;;;;;;19.10;4.32;;;;;;;9.20;100.00;100385.66;4817463;29;20035;-65
2024/01/22 08:37:16;;;;;;;14.13;3.75;;;;;;;9.18;100.00;100371.47;4813691;29;20026;-65
2024/01/22 08:39:41;;;;;;;25.33;4.53;;;;;;;9.20;100.00;100388.31;4811932;29;20043;-65
2024/01/22 08:42:08;;;;;;;15.55;3.58;;;;;;;9.19;100.00;100414.25;4820114;29;20041;-65
2024/01/22 08:44:33;;;;;;;17.38;4.35;;;;;;;9.17;100.00;100396.59;4810666;29;20030;-66
2024/01/22 08:46:58;;;;;;;15.65;3.72;;;;;;;9.15;100.00;100399.41;4817212;29;20511;-66
2024/01/22 08:49:24;;;;;;;23.88;4.68;;;;;;;9.13;100.00;100404.00;4833042;29;20036;-66
2024/01/22 08:51:49;;;;;;;23.95;5.18;;;;;;;9.13;100.00;100395.13;4836939;29;20408;-65
2024/01/22 08:54:14;;;;;;;16.00;3.65;;;;;;;9.12;100.00;100401.44;4835980;29;20030;-65
2024/01/22 08:56:39;;;;;;;25.75;4.85;;;;;;;9.13;100.00;100408.53;4828911;29;20206;-65
2024/01/22 08:59:05;;;;;;;22.17;4.55;;;;;;;9.13;100.00;100408.53;4827572;29;20175;-65
2024/01/22 09:01:31;;;;;;;19.42;3.97;;;;;;;9.12;100.00;100414.84;4836910;29;20121;-65
2024/01/22 09:03:56;;;;;;;23.48;4.75;;;;;;;9.12;100.00;100404.97;4835560;29;20029;-65
2024/01/22 09:06:21;;;;;;;17.35;3.53;;;;;;;9.14;100.00;100410.25;4830020;29;20033;-65
2024/01/22 09:08:47;;;;;;;22.67;4.30;;;;;;;9.14;100.00;100408.41;4834407;29;20025;-65
2024/01/22 09:11:12;;;;;;;18.33;3.63;;;;;;;9.13;100.00;100404.00;4828132;29;20041;-65
2024/01/22 09:13:38;;;;;;;21.63;4.93;;;;;;;9.12;100.00;100404.13;4835934;29;20118;-67
2024/01/22 09:16:04;;;;;;;24.73;4.50;;;;;;;9.12;100.00;100393.41;4824480;29;20055;-65
2024/01/22 09:18:29;;;;;;;21.30;4.43;;;;;;;9.09;100.00;100387.31;4835534;29;20034;-65
2024/01/22 09:20:55;;;;;;;19.58;4.15;;;;;;;9.09;100.00;100389.09;4834927;29;20045;-65
2024/01/22 09:23:21;;;;;;;23.05;4.40;;;;;;;9.08;100.00;100387.41;4835020;29;20025;-65
2024/01/22 09:25:47;;;;;;;21.83;5.03;;;;;;;9.08;100.00;100390.94;4824183;29;20057;-66
2024/01/22 09:28:14;;;;;;;25.52;5.20;;;;;;;9.11;100.00;100389.88;4835479;29;20033;-65
2024/01/22 09:30:39;;;;;;;19.95;4.43;;;;;;;9.09;100.00;100381.94;4834931;29;20030;-65
2024/01/22 09:33:05;;;;;;;17.42;4.43;;;;;;;9.10;100.00;100390.81;4834712;29;20038;-65
2024/01/22 09:35:30;;;;;;;20.50;5.00;;;;;;;9.09;100.00;100387.31;4832743;29;20401;-65
2024/01/22 09:37:55;;;;;;;18.85;3.95;;;;;;;9.10;100.00;100397.03;4826613;29;20038;-64
2024/01/22 09:40:24;;;;;;;23.83;4.57;;;;;;;9.09;100.00;100391.78;4833125;29;20038;-66
2024/01/22 09:42:50;;;;;;;21.90;3.50;;;;;;;9.10;100.00;100402.41;4834726;29;20468;-66
2024/01/22 09:45:15;;;;;;;19.98;3.72;;;;;;;9.12;100.00;100404.13;4834869;29;20065;-66
2024/01/22 09:47:42;;;;;;;18.27;3.85;;;;;;;9.13;100.00;100403.16;4824773;29;20513;-66
2024/01/22 09:50:08;;;;;;;16.75;3.55;;;;;;;9.16;100.00;100403.78;4831428;29;20435;-66
2024/01/22 09:52:34;;;;;;;17.08;3.47;;;;;;;9.18;100.00;100411.69;4828063;29;20113;-66
2024/01/22 09:55:00;;;;;;;12.65;3.15;;;;;;;9.21;100.00;100428.44;4817601;29;20037;-66
2024/01/22 09:57:27;;;;;;;20.65;3.88;;;;;;;9.22;100.00;100430.16;4836262;29;20052;-66
2024/01/22 09:59:52;;;;;;;15.20;3.20;;;;;;;9.22;100.00;100430.16;4819698;29;20475;-66
2024/01/22 10:02:18;;;;;;;18.30;3.20;;;;;;;9.25;100.00;100429.91;4834027;29;20120;-66
2024/01/22 10:04:44;;;;;;;11.02;3.05;;;;;;;9.25;100.00;100446.00;4836916;29;20037;-66
2024/01/22 10:07:14;;;;;;;13.70;2.95;;;;;;;9.26;100.00;100444.16;4829581;29;20083;-65
2024/01/22 10:09:39;;;;;;;11.25;2.80;;;;;;;9.27;100.00;100446.72;4837608;29;20034;-65
2024/01/22 10:12:05;;;;;;;13.70;3.15;;;;;;;9.29;100.00;100446.63;4839655;29;20462;-65
2024/01/22 10:14:32;;;;;;;13.75;2.95;;;;;;;9.31;100.00;100455.41;4837567;29;20034;-65
2024/01/22 10:17:15;;;;;;;17.30;3.08;;;;;;;9.32;100.00;100475.88;4837630;29;20078;-65
2024/01/22 10:19:40;;;;;;;17.10;3.58;;;;;;;9.31;100.00;100487.56;4835664;29;20102;-65
2024/01/22 10:22:07;;;;;;;18.30;3.10;;;;;;;9.31;100.00;100535.00;4824953;29;20026;-65
2024/01/22 10:24:33;;;;;;;20.55;4.35;;;;;;;9.14;100.00;100561.22;4822995;29;20042;-65
2024/01/22 10:27:12;;;;;;;19.73;3.92;;;;;;;8.86;100.00;100557.84;4832523;29;20509;-65
2024/01/22 10:29:38;;;;;;;;;;;;;;;8.69;100.00;100566.19;4829539;29;20022;-66
2024/01/22 10:32:04;;;;;;;19.85;4.65;;;;;;;8.33;100.00;100557.91;4821789;29;20792;-65
2024/01/22 10:34:41;;;;;;;22.20;4.95;;;;;;;8.18;100.00;100551.75;4837184;29;20036;-65
2024/01/22 10:37:12;;;;;;;24.08;4.78;;;;;;;8.06;100.00;100552.59;4832085;29;20082;-65
2024/01/22 10:39:42;;;;;;;31.45;5.68;;;;;;;7.98;100.00;100565.63;4835724;29;20050;-65
2024/01/22 10:42:15;;;;;;;21.15;5.13;;;;;;;7.91;100.00;100557.19;4835459;29;20061;-65
2024/01/22 10:44:43;;;;;;;24.52;5.65;;;;;;;7.90;100.00;100541.22;4835163;29;20038;-65
2024/01/22 10:47:11;;;;;;;27.17;5.38;;;;;;;7.90;100.00;100551.94;4823064;29;20546;-65
2024/01/22 10:49:36;;;;;;;25.05;5.13;;;;;;;7.91;100.00;100559.84;4818468;29;20137;-65
2024/01/22 10:52:03;;;;;;;25.88;6.07;;;;;;;7.93;100.00;100557.91;4823283;29;20120;-65
2024/01/22 10:54:33;;;;;;;36.15;6.78;;;;;;;7.94;100.00;100553.44;4835552;29;20034;-65
2024/01/22 10:57:04;;;;;;;27.58;6.40;;;;;;;7.96;100.00;100556.84;4830244;29;20033;-65
2024/01/22 10:59:35;;;;;;;25.27;6.35;;;;;;;7.98;100.00;100549.56;4829411;29;20113;-68
2024/01/22 11:02:02;;;;;;;24.23;5.68;;;;;;;7.99;100.00;100557.50;4830218;29;20042;-68
2024/01/22 11:04:33;;;;;;;27.90;6.30;;;;;;;8.02;100.00;100559.13;4834181;29;20093;-68
2024/01/22 11:07:01;;;;;;;31.00;6.78;;;;;;;8.04;100.00;100554.53;4825210;29;20044;-68
2024/01/22 11:09:31;;;;;;;23.73;6.53;;;;;;;8.07;100.00;100554.31;4839268;29;20487;-68
2024/01/22 11:12:02;;;;;;;26.30;6.57;;;;;;;8.06;100.00;100560.63;4828629;29;20030;-68
2024/01/22 11:14:28;;;;;;;27.00;6.18;;;;;;;8.07;100.00;100565.03;4836205;29;20433;-67
2024/01/22 11:16:54;;;;;;;28.98;5.75;;;;;;;8.11;100.00;100579.06;4840962;29;20042;-68